createdAt,value
2022-11-26T00:01:30.308Z,57.78
2022-11-26T00:04:03.269Z,56.33
2022-11-26T00:06:36.561Z,57.97
2022-11-26T00:09:07.027Z,55.80
2022-11-26T00:11:35.667Z,56.92
2022-11-26T00:14:20.545Z,60.28
2022-11-26T00:16:49.065Z,55.97
2022-11-26T00:19:17.491Z,53.15
2022-11-26T00:21:45.927Z,57.20
2022-11-26T00:24:27.692Z,56.58
2022-11-26T00:26:58.953Z,55.67
2022-11-26T00:29:43.871Z,62.13
2022-11-26T00:32:17.099Z,57.97
2022-11-26T00:34:45.967Z,54.92
2022-11-26T00:37:21.868Z,58.13
2022-11-26T00:39:50.901Z,55.55
2022-11-26T00:42:20.086Z,57.97
2022-11-26T00:44:50.232Z,56.60
2022-11-26T00:47:18.809Z,51.00
2022-11-26T00:49:47.217Z,56.40
2022-11-26T00:52:26.112Z,56.17
2022-11-26T00:54:54.909Z,54.58
2022-11-26T00:57:23.530Z,56.35
2022-11-26T00:59:53.290Z,53.75
2022-11-26T01:02:21.704Z,56.65
2022-11-26T01:04:50.054Z,61.28
2022-11-26T01:07:18.488Z,55.35
2022-11-26T01:09:47.899Z,53.85
2022-11-26T01:12:16.688Z,54.33
2022-11-26T01:14:45.099Z,56.20
2022-11-26T01:17:23.281Z,56.42
2022-11-26T01:19:51.974Z,56.10
2022-11-26T01:22:22.374Z,66.35
2022-11-26T01:24:51.576Z,63.10
2022-11-26T01:27:22.251Z,55.28
2022-11-26T01:29:50.571Z,65.70
2022-11-26T01:32:22.325Z,53.55
2022-11-26T01:34:53.669Z,59.08
2022-11-26T01:37:22.028Z,58.80
2022-11-26T01:39:50.422Z,58.95
2022-11-26T01:42:27.515Z,61.75
2022-11-26T01:44:55.914Z,66.47
2022-11-26T01:47:28.565Z,56.55
2022-11-26T01:50:34.522Z,65.68
2022-11-26T01:53:06.901Z,65.55
2022-11-26T01:55:39.804Z,65.85
2022-11-26T01:58:13.753Z,60.88
2022-11-26T02:00:42.498Z,71.35
2022-11-26T02:03:12.905Z,63.67
2022-11-26T02:05:45.389Z,59.58
2022-11-26T02:08:14.318Z,66.13
2022-11-26T02:10:42.716Z,56.90
2022-11-26T02:13:11.063Z,54.47
2022-11-26T02:15:49.205Z,60.25
2022-11-26T02:18:18.968Z,67.38
2022-11-26T02:20:57.872Z,60.90
2022-11-26T02:23:54.350Z,59.72
2022-11-26T02:27:04.552Z,53.55
2022-11-26T02:30:04.202Z,62.80
2022-11-26T02:32:41.598Z,57.42
2022-11-26T02:35:17.211Z,64.40
2022-11-26T02:37:49.451Z,59.88
2022-11-26T02:40:19.062Z,56.72
2022-11-26T02:42:47.407Z,49.72
2022-11-26T02:45:21.235Z,53.13
2022-11-26T02:47:54.142Z,55.92
2022-11-26T02:50:27.743Z,55.97
2022-11-26T02:52:58.922Z,50.30
2022-11-26T02:55:31.143Z,50.10
2022-11-26T02:58:00.090Z,49.45
2022-11-26T03:00:29.995Z,53.58
2022-11-26T03:03:03.062Z,50.47
2022-11-26T03:05:35.167Z,52.72
2022-11-26T03:08:06.270Z,52.58
2022-11-26T03:10:34.649Z,55.17
2022-11-26T03:13:03.101Z,54.22
2022-11-26T03:15:32.798Z,59.63
2022-11-26T03:18:01.112Z,54.95
2022-11-26T03:20:29.537Z,57.22
2022-11-26T03:22:57.871Z,56.55
2022-11-26T03:25:26.056Z,54.67
2022-11-26T03:27:56.607Z,59.80
2022-11-26T03:30:25.041Z,57.83
2022-11-26T03:32:54.784Z,52.95
2022-11-26T03:35:23.008Z,61.35
2022-11-26T03:37:51.209Z,57.15
2022-11-26T03:40:20.034Z,58.90
2022-11-26T03:42:48.285Z,64.07
2022-11-26T03:45:16.867Z,63.03
2022-11-26T03:47:45.147Z,63.13
2022-11-26T03:50:14.947Z,69.93
2022-11-26T03:52:46.186Z,64.25
2022-11-26T03:55:16.173Z,59.63
2022-11-26T03:57:44.411Z,67.50
2022-11-26T04:00:14.587Z,63.72
2022-11-26T04:02:42.843Z,71.25
2022-11-26T04:05:11.139Z,69.63
2022-11-26T04:07:40.982Z,62.08
2022-11-26T04:10:10.834Z,58.03
2022-11-26T04:12:39.186Z,56.40
2022-11-26T04:15:08.628Z,54.47
2022-11-26T04:17:36.950Z,57.05
2022-11-26T04:20:06.305Z,49.03
2022-11-26T04:22:34.629Z,52.08
2022-11-26T04:25:07.314Z,51.63
2022-11-26T04:27:35.640Z,49.80
2022-11-26T04:30:04.136Z,48.80
2022-11-26T04:32:32.405Z,48.65
2022-11-26T04:35:00.694Z,49.13
2022-11-26T04:37:29.149Z,50.85
2022-11-26T04:39:57.417Z,49.50
2022-11-26T04:42:27.280Z,50.75
2022-11-26T04:44:55.571Z,53.95
2022-11-26T04:47:23.867Z,49.00
2022-11-26T04:49:52.432Z,47.70
2022-11-26T04:52:20.852Z,51.50
2022-11-26T04:54:49.841Z,51.35
2022-11-26T04:57:18.308Z,52.70
2022-11-26T04:59:48.011Z,50.30
2022-11-26T05:02:16.608Z,44.92
2022-11-26T05:04:45.071Z,48.83
2022-11-26T05:07:13.400Z,47.05
2022-11-26T05:09:41.815Z,44.92
2022-11-26T05:12:11.305Z,45.80
2022-11-26T05:14:39.835Z,43.30
2022-11-26T05:17:09.759Z,42.60
2022-11-26T05:19:38.065Z,48.53
2022-11-26T05:22:06.273Z,43.75
2022-11-26T05:24:34.552Z,41.47
2022-11-26T05:27:02.799Z,41.20
2022-11-26T05:29:31.925Z,40.70
2022-11-26T05:32:00.699Z,39.60
2022-11-26T05:34:30.555Z,42.00
2022-11-26T05:36:58.786Z,41.72
2022-11-26T05:39:27.188Z,37.83
2022-11-26T05:41:55.495Z,37.90
2022-11-26T05:44:23.730Z,40.38
2022-11-26T05:46:52.355Z,39.22
2022-11-26T05:49:20.772Z,38.20
2022-11-26T05:51:50.690Z,38.22
2022-11-26T05:54:19.049Z,37.42
2022-11-26T05:56:47.288Z,36.80
2022-11-26T05:59:16.284Z,37.28
2022-11-26T06:01:44.613Z,35.20
2022-11-26T06:04:12.865Z,34.63
2022-11-26T06:06:41.157Z,38.40
2022-11-26T06:09:11.042Z,35.60
2022-11-26T06:11:40.609Z,34.05
2022-11-26T06:14:10.486Z,37.78
2022-11-26T06:16:39.235Z,38.80
2022-11-26T06:19:07.726Z,40.28
2022-11-26T06:21:36.045Z,36.63
2022-11-26T06:24:04.655Z,38.92
2022-11-26T06:26:34.329Z,38.85
2022-11-26T06:29:02.606Z,37.72
2022-11-26T06:31:31.183Z,38.42
2022-11-26T06:33:59.991Z,38.03
2022-11-26T06:36:29.354Z,38.58
2022-11-26T06:38:57.640Z,37.08
2022-11-26T06:41:25.969Z,37.00
2022-11-26T06:43:55.740Z,37.20
2022-11-26T06:46:24.116Z,35.55
2022-11-26T06:48:52.501Z,36.17
2022-11-26T06:51:21.971Z,35.45
2022-11-26T06:53:50.649Z,36.55
2022-11-26T06:56:19.512Z,38.45
2022-11-26T06:58:48.125Z,37.25
2022-11-26T07:01:23.853Z,37.95
2022-11-26T07:03:52.898Z,39.92
2022-11-26T07:06:23.195Z,37.50
2022-11-26T07:08:52.836Z,36.97
2022-11-26T07:11:21.530Z,35.03
2022-11-26T07:13:50.529Z,40.15
2022-11-26T07:16:20.822Z,39.13
2022-11-26T07:18:50.135Z,36.50
2022-11-26T07:21:19.576Z,32.70
2022-11-26T07:23:48.488Z,36.53
2022-11-26T07:26:18.493Z,35.53
2022-11-26T07:28:47.934Z,35.65
2022-11-26T07:31:20.908Z,35.20
2022-11-26T07:33:49.617Z,35.05
2022-11-26T07:36:19.633Z,34.83
2022-11-26T07:38:48.775Z,34.50
2022-11-26T07:41:20.370Z,33.00
2022-11-26T07:43:48.854Z,32.22
2022-11-26T07:46:22.568Z,31.17
2022-11-26T07:48:51.653Z,33.30
2022-11-26T07:51:23.342Z,32.45
2022-11-26T07:53:53.015Z,34.10
2022-11-26T07:56:21.487Z,33.10
2022-11-26T07:58:49.813Z,31.60
2022-11-26T08:01:21.966Z,29.20
2022-11-26T08:03:52.682Z,30.38
2022-11-26T08:06:22.689Z,30.80
2022-11-26T08:08:51.719Z,31.30
2022-11-26T08:11:21.899Z,29.77
2022-11-26T08:13:53.548Z,31.00
2022-11-26T08:16:39.423Z,31.20
2022-11-26T08:19:09.562Z,29.45
2022-11-26T08:21:38.495Z,27.85
2022-11-26T08:24:07.453Z,27.98
2022-11-26T08:26:42.432Z,28.20
2022-11-26T08:29:12.204Z,28.30
2022-11-26T08:31:46.866Z,29.20
2022-11-26T08:34:16.496Z,29.40
2022-11-26T08:36:45.262Z,28.38
2022-11-26T08:39:14.868Z,28.80
2022-11-26T08:41:50.589Z,27.45
2022-11-26T08:44:21.756Z,27.20
2022-11-26T08:46:51.723Z,28.35
2022-11-26T08:49:20.284Z,29.50
2022-11-26T08:51:48.594Z,29.40
2022-11-26T08:54:16.820Z,28.77
2022-11-26T08:56:45.236Z,29.95
2022-11-26T08:59:13.550Z,29.77
2022-11-26T09:01:42.181Z,28.88
2022-11-26T09:04:13.799Z,29.23
2022-11-26T09:06:42.483Z,28.30
2022-11-26T09:09:14.213Z,28.15
2022-11-26T09:11:45.832Z,27.90
2022-11-26T09:14:15.255Z,29.33
2022-11-26T09:16:43.671Z,28.48
2022-11-26T09:19:14.594Z,30.77
2022-11-26T09:21:43.043Z,30.63
2022-11-26T09:24:11.390Z,29.02
2022-11-26T09:26:40.031Z,29.33
2022-11-26T09:29:08.424Z,33.17
2022-11-26T09:31:45.901Z,30.35
2022-11-26T09:34:25.260Z,30.95
2022-11-26T09:36:53.498Z,32.92
2022-11-26T09:39:22.026Z,30.08
2022-11-26T09:41:56.182Z,28.65
2022-11-26T09:44:34.706Z,29.33
2022-11-26T09:47:13.889Z,30.83
2022-11-26T09:49:56.675Z,28.95
2022-11-26T09:52:30.788Z,28.90
2022-11-26T09:55:06.879Z,31.08
2022-11-26T09:57:42.097Z,28.83
2022-11-26T10:00:24.053Z,28.73
2022-11-26T10:02:57.378Z,30.70
2022-11-26T10:05:40.822Z,29.92
2022-11-26T10:08:28.963Z,29.05
2022-11-26T10:11:03.827Z,28.00
2022-11-26T10:13:43.491Z,30.92
2022-11-26T10:16:24.540Z,28.52
2022-11-26T10:19:00.189Z,29.75
2022-11-26T10:21:57.800Z,29.67
2022-11-26T10:24:30.887Z,28.60
2022-11-26T10:27:06.048Z,28.55
2022-11-26T10:29:39.623Z,29.02
2022-11-26T10:32:15.795Z,28.77
2022-11-26T10:34:51.243Z,27.55
2022-11-26T10:37:25.947Z,28.17
2022-11-26T10:40:02.035Z,28.02
2022-11-26T10:42:42.521Z,30.40
2022-11-26T10:45:20.570Z,29.58
2022-11-26T10:47:49.406Z,30.00
2022-11-26T10:53:22.715Z,29.38
2022-11-26T10:55:53.488Z,30.65
2022-11-26T10:58:24.770Z,30.80
2022-11-26T11:01:01.348Z,32.15
2022-11-26T11:06:42.380Z,29.20
2022-11-26T11:09:28.884Z,30.60
2022-11-26T11:12:21.440Z,29.48
2022-11-26T11:14:53.683Z,28.08
2022-11-26T11:17:32.051Z,27.08
2022-11-26T11:20:03.560Z,25.13
2022-11-26T11:22:32.511Z,29.00
2022-11-26T11:25:02.567Z,28.75
2022-11-26T11:27:44.053Z,29.58
2022-11-26T11:30:30.534Z,30.88
2022-11-26T11:33:10.630Z,31.30
2022-11-26T11:35:43.259Z,29.83
2022-11-26T11:38:26.128Z,32.35
2022-11-26T11:40:57.708Z,30.17
2022-11-26T11:44:14.984Z,31.92
2022-11-26T11:47:32.625Z,29.13
2022-11-26T11:57:46.047Z,29.73
2022-11-26T12:01:21.736Z,30.33
2022-11-26T12:04:33.158Z,30.73
2022-11-26T12:15:21.678Z,30.25
2022-11-26T12:18:21.504Z,32.67
2022-11-26T12:20:54.971Z,28.80
2022-11-26T12:31:24.387Z,30.30
2022-11-26T12:34:26.353Z,29.45
2022-11-26T12:39:41.858Z,29.92
2022-11-26T12:41:35.812Z,30.27
2022-11-26T12:50:50.395Z,27.33
2022-11-26T12:52:55.479Z,27.70
2022-11-26T12:55:45.614Z,29.02
2022-11-26T12:59:01.119Z,31.42
2022-11-26T13:14:10.924Z,34.85
2022-11-26T13:17:13.833Z,31.52
2022-11-26T13:20:34.797Z,33.30
2022-11-26T13:23:57.284Z,28.05
2022-11-26T13:26:59.452Z,29.90
2022-11-26T13:30:40.080Z,32.58
2022-11-26T13:34:20.390Z,31.27
2022-11-26T13:38:11.669Z,31.85
2022-11-26T13:41:27.557Z,32.35
2022-11-26T13:44:26.263Z,31.75
2022-11-26T13:47:26.941Z,31.73
2022-11-26T13:50:03.839Z,34.33
2022-11-26T13:52:43.343Z,34.55
2022-11-26T13:55:25.168Z,33.80
2022-11-26T13:57:59.676Z,29.63
2022-11-26T14:00:34.145Z,32.72
2022-11-26T14:03:23.376Z,31.27
2022-11-26T14:06:11.005Z,29.15
2022-11-26T14:08:43.514Z,31.42
2022-11-26T14:11:19.701Z,30.20
2022-11-26T14:14:46.319Z,34.10
2022-11-26T14:17:26.589Z,32.35
2022-11-26T14:20:13.678Z,29.73
2022-11-26T14:22:46.951Z,30.38
2022-11-26T14:25:16.459Z,29.20
2022-11-26T14:32:00.499Z,31.48
2022-11-26T14:34:13.031Z,29.67
2022-11-26T14:40:49.146Z,29.95
2022-11-26T14:43:37.766Z,35.47
2022-11-26T14:46:12.551Z,31.42
2022-11-26T14:52:02.498Z,34.20
2022-11-26T14:54:36.969Z,33.65
2022-11-26T14:57:14.745Z,37.35
2022-11-26T14:59:59.147Z,37.03
2022-11-26T15:02:29.314Z,37.83
2022-11-26T15:05:03.158Z,34.70
2022-11-26T15:07:34.323Z,37.17
2022-11-26T15:10:06.055Z,36.83
2022-11-26T15:12:37.069Z,34.28
2022-11-26T15:15:10.802Z,34.28
2022-11-26T15:17:48.742Z,34.40
2022-11-26T15:20:20.631Z,30.55
2022-11-26T15:22:54.105Z,34.90
2022-11-26T15:25:26.566Z,33.72
2022-11-26T15:28:06.766Z,34.00
2022-11-26T15:30:38.732Z,33.65
2022-11-26T15:33:41.348Z,32.58
2022-11-26T15:36:17.136Z,32.83
2022-11-26T15:41:49.653Z,30.85
2022-11-26T15:44:24.269Z,32.80
2022-11-26T15:46:56.346Z,29.70
2022-11-26T15:49:37.445Z,32.40
2022-11-26T15:52:10.135Z,31.30
2022-11-26T15:55:10.999Z,32.15
2022-11-26T15:57:36.903Z,29.77
2022-11-26T16:00:08.556Z,30.85
2022-11-26T16:02:41.250Z,31.42
2022-11-26T16:05:25.257Z,29.80
2022-11-26T16:08:05.862Z,29.50
2022-11-26T16:10:41.603Z,30.88
2022-11-26T16:13:38.466Z,30.02
2022-11-26T16:16:20.180Z,27.70
2022-11-26T16:18:58.832Z,30.55
2022-11-26T16:21:56.708Z,33.72
2022-11-26T16:24:45.729Z,29.52
2022-11-26T16:27:46.400Z,28.88
2022-11-26T16:30:20.274Z,31.70
2022-11-26T16:32:48.821Z,30.55
2022-11-26T16:35:44.083Z,27.95
2022-11-26T16:38:20.927Z,28.65
2022-11-26T16:40:49.529Z,30.13
2022-11-26T16:43:18.190Z,30.50
2022-11-26T16:45:48.981Z,30.58
2022-11-26T16:48:23.692Z,31.58
2022-11-26T16:50:57.505Z,31.42
2022-11-26T16:53:25.965Z,32.92
2022-11-26T16:55:55.561Z,29.92
2022-11-26T16:58:29.956Z,29.92
2022-11-26T17:01:00.762Z,26.58
2022-11-26T17:03:33.348Z,29.17
2022-11-26T17:06:04.630Z,28.25
2022-11-26T17:08:34.016Z,29.00
2022-11-26T17:11:03.686Z,29.58
2022-11-26T17:13:32.626Z,31.10
2022-11-26T17:16:12.648Z,31.10
2022-11-26T17:18:46.163Z,28.67
2022-11-26T17:21:16.892Z,29.08
2022-11-26T17:23:46.166Z,27.92
2022-11-26T17:26:21.383Z,31.20
2022-11-26T17:28:50.425Z,33.13
2022-11-26T17:31:51.200Z,31.65
2022-11-26T17:34:20.096Z,32.22
2022-11-26T17:36:49.609Z,32.67
2022-11-26T17:39:20.039Z,30.27
2022-11-26T17:41:48.604Z,30.55
2022-11-26T17:44:17.251Z,33.40
2022-11-26T17:47:19.474Z,28.73
2022-11-26T17:49:48.713Z,28.20
2022-11-26T17:52:18.623Z,30.77
2022-11-26T17:54:47.974Z,28.52
2022-11-26T17:57:18.498Z,27.98
2022-11-26T17:59:51.776Z,27.15
2022-11-26T18:02:27.744Z,26.35
2022-11-26T18:09:20.428Z,25.77
2022-11-26T18:25:51.190Z,31.05
2022-11-26T18:28:19.695Z,28.35
2022-11-26T18:31:31.700Z,27.83
2022-11-26T18:34:15.252Z,28.60
2022-11-26T18:36:52.171Z,27.70
2022-11-26T18:44:15.126Z,24.33
2022-11-26T18:46:51.863Z,26.48
2022-11-26T18:53:55.923Z,27.60
2022-11-26T19:09:48.656Z,25.15
2022-11-26T19:36:16.404Z,27.60
2022-11-26T19:39:41.844Z,28.70
2022-11-26T19:50:51.767Z,30.63
2022-11-26T20:02:06.164Z,28.85
2022-11-26T20:08:29.942Z,31.85
2022-11-26T20:11:06.493Z,31.02
2022-11-26T20:14:04.853Z,31.52
2022-11-26T20:17:06.179Z,26.45
2022-11-26T20:19:48.761Z,32.17
2022-11-26T20:22:28.197Z,29.38
2022-11-26T20:25:03.703Z,29.30
2022-11-26T20:27:55.271Z,30.35
2022-11-26T20:35:55.193Z,30.90
2022-11-26T21:09:58.177Z,35.00
2022-11-26T21:20:58.461Z,31.73
2022-11-26T21:23:40.878Z,32.65
2022-11-26T21:26:23.444Z,31.85
2022-11-26T21:31:58.118Z,35.55
2022-11-26T21:34:56.989Z,33.78
2022-11-26T21:49:28.069Z,32.22
2022-11-26T21:52:17.378Z,33.90
2022-11-26T21:55:03.256Z,36.03
2022-11-26T21:58:01.172Z,35.22
2022-11-26T22:02:14.596Z,33.63
2022-11-26T22:39:12.782Z,36.33
2022-11-26T23:46:03.642Z,34.65
2022-11-26T23:48:47.940Z,33.15
2022-11-26T23:52:01.984Z,33.35
